ハバロフスク の空港の天気 - METARとTAF

ハバロフスク空港 ( UHHH / KHV ) - ロシア ハバロフスク
飛行場実況気象(Metar)
観測時間10/26 06:00 VLAT (10/25 20:00 UTC)
風向・風速西 2m/s
視程10km以上
天気現象
なし
気温2℃
湿度87%
気圧1016hPa
METARUHHH 252000Z 26002MPS CAVOK 02/M00 Q1016 R23L/090060 NOSIG RMK QFE755/1007
過去の天気等 Google飛行場航空写真 Wunderground天気予報

過去48時間のMETAR

飛行場予報(TAF)
発表時間: 10/26 02:50 VLAT (10/25 16:50 UTC)
予報対象時間: 26日4時 VLAT ~ 27日10時 VLAT
風向・風速不定 1m/s
視程10km以上
全天の4割程度の雲 雲底高度 610m
26日10時 VLAT から
風向・風速南 3m/s
視程10km以上
なし
26日12時 VLAT ~ 26日18時 VLAT に一時的に
風向・風速南南西 7m/s
TAF UHHH 251650Z 2518/2624 VRB01MPS 9999 SCT020
FM260000 19003MPS CAVOK
TEMPO 2602/2608 21007MPS